sensor_id;sensor_type;location;lat;lon;timestamp;temperature;humidity
35563;DHT22;21665;40.108;18.302;2022-07-29T00:00:22;25.30;99.90
35563;DHT22;21665;40.108;18.302;2022-07-29T00:02:48;25.20;99.90
35563;DHT22;21665;40.108;18.302;2022-07-29T00:05:15;25.10;99.90
35563;DHT22;21665;40.108;18.302;2022-07-29T00:07:41;25.10;99.90
35563;DHT22;21665;40.108;18.302;2022-07-29T00:10:08;25.10;99.90
35563;DHT22;21665;40.108;18.302;2022-07-29T00:12:35;25.00;99.90
35563;DHT22;21665;40.108;18.302;2022-07-29T00:15:02;25.00;99.90
35563;DHT22;21665;40.108;18.302;2022-07-29T00:17:29;25.00;99.90
35563;DHT22;21665;40.108;18.302;2022-07-29T00:19:56;25.10;99.90
35563;DHT22;21665;40.108;18.302;2022-07-29T00:22:22;25.10;99.90
35563;DHT22;21665;40.108;18.302;2022-07-29T00:24:49;25.10;99.90
35563;DHT22;21665;40.108;18.302;2022-07-29T00:27:16;25.10;99.90
35563;DHT22;21665;40.108;18.302;2022-07-29T00:29:43;25.10;99.90
35563;DHT22;21665;40.108;18.302;2022-07-29T00:32:13;25.10;99.90
35563;DHT22;21665;40.108;18.302;2022-07-29T00:34:40;25.10;99.90
35563;DHT22;21665;40.108;18.302;2022-07-29T00:37:28;25.00;99.90
35563;DHT22;21665;40.108;18.302;2022-07-29T00:39:54;25.00;99.90
35563;DHT22;21665;40.108;18.302;2022-07-29T00:42:21;24.90;99.90
35563;DHT22;21665;40.108;18.302;2022-07-29T00:44:48;24.90;99.90
35563;DHT22;21665;40.108;18.302;2022-07-29T00:47:15;24.90;99.90
35563;DHT22;21665;40.108;18.302;2022-07-29T00:49:42;24.90;99.90
35563;DHT22;21665;40.108;18.302;2022-07-29T00:52:10;24.90;99.90
35563;DHT22;21665;40.108;18.302;2022-07-29T00:54:39;24.90;99.90
35563;DHT22;21665;40.108;18.302;2022-07-29T00:57:08;25.00;99.90
35563;DHT22;21665;40.108;18.302;2022-07-29T00:59:35;25.00;99.90
35563;DHT22;21665;40.108;18.302;2022-07-29T01:02:05;25.00;99.90
35563;DHT22;21665;40.108;18.302;2022-07-29T01:04:31;25.10;99.90
35563;DHT22;21665;40.108;18.302;2022-07-29T01:07:00;25.10;99.90
35563;DHT22;21665;40.108;18.302;2022-07-29T01:09:34;25.10;99.90
35563;DHT22;21665;40.108;18.302;2022-07-29T01:12:03;25.10;99.90
35563;DHT22;21665;40.108;18.302;2022-07-29T01:14:31;25.00;99.90
35563;DHT22;21665;40.108;18.302;2022-07-29T01:17:09;25.00;99.90
35563;DHT22;21665;40.108;18.302;2022-07-29T01:23:09;24.90;99.90
35563;DHT22;21665;40.108;18.302;2022-07-29T01:31:31;24.90;99.90
35563;DHT22;21665;40.108;18.302;2022-07-29T01:34:02;24.90;99.90
35563;DHT22;21665;40.108;18.302;2022-07-29T01:36:40;24.90;99.90
35563;DHT22;21665;40.108;18.302;2022-07-29T01:39:19;24.90;99.90
35563;DHT22;21665;40.108;18.302;2022-07-29T01:42:15;24.80;99.90
35563;DHT22;21665;40.108;18.302;2022-07-29T01:45:16;24.80;99.90
35563;DHT22;21665;40.108;18.302;2022-07-29T01:47:52;24.80;99.90
35563;DHT22;21665;40.108;18.302;2022-07-29T01:50:35;24.80;99.90
35563;DHT22;21665;40.108;18.302;2022-07-29T01:53:09;24.80;99.90
35563;DHT22;21665;40.108;18.302;2022-07-29T01:55:43;24.80;99.90
35563;DHT22;21665;40.108;18.302;2022-07-29T01:58:11;24.80;99.90
35563;DHT22;21665;40.108;18.302;2022-07-29T02:00:41;24.70;99.90
35563;DHT22;21665;40.108;18.302;2022-07-29T02:03:11;24.80;99.90
35563;DHT22;21665;40.108;18.302;2022-07-29T02:05:41;24.80;99.90
35563;DHT22;21665;40.108;18.302;2022-07-29T02:08:10;24.80;99.90
35563;DHT22;21665;40.108;18.302;2022-07-29T02:10:39;24.70;99.90
35563;DHT22;21665;40.108;18.302;2022-07-29T02:13:07;24.70;99.90
35563;DHT22;21665;40.108;18.302;2022-07-29T02:15:36;24.70;99.90
35563;DHT22;21665;40.108;18.302;2022-07-29T02:18:18;24.80;99.90
35563;DHT22;21665;40.108;18.302;2022-07-29T02:20:48;24.80;99.90
35563;DHT22;21665;40.108;18.302;2022-07-29T02:23:19;24.70;99.90
35563;DHT22;21665;40.108;18.302;2022-07-29T02:25:49;24.70;99.90
35563;DHT22;21665;40.108;18.302;2022-07-29T02:28:17;24.70;99.90
35563;DHT22;21665;40.108;18.302;2022-07-29T02:30:46;24.70;99.90
35563;DHT22;21665;40.108;18.302;2022-07-29T02:33:16;24.70;99.90
35563;DHT22;21665;40.108;18.302;2022-07-29T02:35:45;24.70;99.90
35563;DHT22;21665;40.108;18.302;2022-07-29T02:38:14;24.80;99.90
35563;DHT22;21665;40.108;18.302;2022-07-29T02:41:03;24.70;99.90
35563;DHT22;21665;40.108;18.302;2022-07-29T02:43:33;24.70;99.90
35563;DHT22;21665;40.108;18.302;2022-07-29T02:46:10;24.70;99.90
35563;DHT22;21665;40.108;18.302;2022-07-29T02:49:00;24.80;99.90
35563;DHT22;21665;40.108;18.302;2022-07-29T02:51:40;24.70;99.90
35563;DHT22;21665;40.108;18.302;2022-07-29T02:54:10;24.70;99.90
35563;DHT22;21665;40.108;18.302;2022-07-29T02:56:40;24.80;99.90
35563;DHT22;21665;40.108;18.302;2022-07-29T02:59:11;24.70;99.90
35563;DHT22;21665;40.108;18.302;2022-07-29T03:01:41;24.70;99.90
35563;DHT22;21665;40.108;18.302;2022-07-29T03:04:11;24.70;99.90
35563;DHT22;21665;40.108;18.302;2022-07-29T03:06:40;24.70;99.90
35563;DHT22;21665;40.108;18.302;2022-07-29T03:09:11;24.80;99.90
35563;DHT22;21665;40.108;18.302;2022-07-29T03:11:39;24.80;99.90
35563;DHT22;21665;40.108;18.302;2022-07-29T03:14:07;24.70;99.90
35563;DHT22;21665;40.108;18.302;2022-07-29T03:16:34;24.70;99.90
35563;DHT22;21665;40.108;18.302;2022-07-29T03:19:04;24.70;99.90
35563;DHT22;21665;40.108;18.302;2022-07-29T03:21:34;24.70;99.90
35563;DHT22;21665;40.108;18.302;2022-07-29T03:24:00;24.70;99.90
35563;DHT22;21665;40.108;18.302;2022-07-29T03:26:27;24.70;99.90
35563;DHT22;21665;40.108;18.302;2022-07-29T03:28:53;24.70;99.90
35563;DHT22;21665;40.108;18.302;2022-07-29T03:31:24;24.70;99.90
35563;DHT22;21665;40.108;18.302;2022-07-29T03:33:53;24.70;99.90
35563;DHT22;21665;40.108;18.302;2022-07-29T03:36:26;24.70;99.90
35563;DHT22;21665;40.108;18.302;2022-07-29T03:38:53;24.60;99.90
35563;DHT22;21665;40.108;18.302;2022-07-29T03:41:23;24.70;99.90
35563;DHT22;21665;40.108;18.302;2022-07-29T03:43:52;24.70;99.90
35563;DHT22;21665;40.108;18.302;2022-07-29T03:46:22;24.70;99.90
35563;DHT22;21665;40.108;18.302;2022-07-29T03:48:54;24.70;99.90
35563;DHT22;21665;40.108;18.302;2022-07-29T03:51:22;24.70;99.90
35563;DHT22;21665;40.108;18.302;2022-07-29T03:53:49;24.70;99.90
35563;DHT22;21665;40.108;18.302;2022-07-29T03:56:17;24.70;99.90
35563;DHT22;21665;40.108;18.302;2022-07-29T03:58:50;24.70;99.90
35563;DHT22;21665;40.108;18.302;2022-07-29T04:01:17;24.70;99.90
35563;DHT22;21665;40.108;18.302;2022-07-29T04:03:45;24.80;99.90
35563;DHT22;21665;40.108;18.302;2022-07-29T04:06:12;24.80;99.90
35563;DHT22;21665;40.108;18.302;2022-07-29T04:08:39;24.80;99.90
35563;DHT22;21665;40.108;18.302;2022-07-29T04:11:06;24.80;99.90
35563;DHT22;21665;40.108;18.302;2022-07-29T04:13:34;24.90;99.90
35563;DHT22;21665;40.108;18.302;2022-07-29T04:16:03;24.90;99.90
35563;DHT22;21665;40.108;18.302;2022-07-29T04:18:33;24.90;99.90
35563;DHT22;21665;40.108;18.302;2022-07-29T04:20:59;24.90;99.90
35563;DHT22;21665;40.108;18.302;2022-07-29T04:23:29;24.90;99.90
35563;DHT22;21665;40.108;18.302;2022-07-29T04:25:59;24.90;99.90
35563;DHT22;21665;40.108;18.302;2022-07-29T04:28:27;24.90;99.90
35563;DHT22;21665;40.108;18.302;2022-07-29T04:30:57;24.90;99.90
35563;DHT22;21665;40.108;18.302;2022-07-29T04:33:26;25.00;99.90
35563;DHT22;21665;40.108;18.302;2022-07-29T04:35:52;25.00;99.90
35563;DHT22;21665;40.108;18.302;2022-07-29T04:38:19;25.10;99.90
35563;DHT22;21665;40.108;18.302;2022-07-29T04:40:46;25.10;99.90
35563;DHT22;21665;40.108;18.302;2022-07-29T04:43:12;25.10;99.90
35563;DHT22;21665;40.108;18.302;2022-07-29T04:45:38;25.20;99.90
35563;DHT22;21665;40.108;18.302;2022-07-29T04:48:08;25.50;99.90
35563;DHT22;21665;40.108;18.302;2022-07-29T04:50:38;26.00;99.90
35563;DHT22;21665;40.108;18.302;2022-07-29T04:53:07;27.20;99.90
35563;DHT22;21665;40.108;18.302;2022-07-29T04:55:40;28.60;99.90
35563;DHT22;21665;40.108;18.302;2022-07-29T04:58:23;29.60;99.90
35563;DHT22;21665;40.108;18.302;2022-07-29T05:00:57;30.80;99.90
35563;DHT22;21665;40.108;18.302;2022-07-29T05:03:26;31.20;99.90
35563;DHT22;21665;40.108;18.302;2022-07-29T05:05:53;31.80;99.90
35563;DHT22;21665;40.108;18.302;2022-07-29T05:08:20;32.00;99.90
35563;DHT22;21665;40.108;18.302;2022-07-29T05:10:47;32.70;99.90
35563;DHT22;21665;40.108;18.302;2022-07-29T05:13:13;32.00;99.90
35563;DHT22;21665;40.108;18.302;2022-07-29T05:15:40;32.10;99.90
35563;DHT22;21665;40.108;18.302;2022-07-29T05:18:06;32.10;99.90
35563;DHT22;21665;40.108;18.302;2022-07-29T05:20:33;33.00;99.90
35563;DHT22;21665;40.108;18.302;2022-07-29T05:23:02;33.20;99.90
35563;DHT22;21665;40.108;18.302;2022-07-29T05:25:29;33.10;99.90
35563;DHT22;21665;40.108;18.302;2022-07-29T05:27:56;33.00;99.90
35563;DHT22;21665;40.108;18.302;2022-07-29T05:30:24;32.80;99.90
35563;DHT22;21665;40.108;18.302;2022-07-29T05:32:51;32.50;99.90
35563;DHT22;21665;40.108;18.302;2022-07-29T05:35:17;32.70;99.90
35563;DHT22;21665;40.108;18.302;2022-07-29T05:37:44;32.80;99.90
35563;DHT22;21665;40.108;18.302;2022-07-29T05:40:11;33.60;99.90
35563;DHT22;21665;40.108;18.302;2022-07-29T05:42:37;33.70;99.90
35563;DHT22;21665;40.108;18.302;2022-07-29T05:45:05;33.60;99.90
35563;DHT22;21665;40.108;18.302;2022-07-29T05:47:32;33.40;99.90
35563;DHT22;21665;40.108;18.302;2022-07-29T05:50:13;33.70;99.90
35563;DHT22;21665;40.108;18.302;2022-07-29T05:52:40;33.80;99.90
35563;DHT22;21665;40.108;18.302;2022-07-29T05:55:07;33.50;99.90
35563;DHT22;21665;40.108;18.302;2022-07-29T05:57:37;33.30;99.90
35563;DHT22;21665;40.108;18.302;2022-07-29T06:00:04;33.40;99.90
35563;DHT22;21665;40.108;18.302;2022-07-29T06:02:38;33.40;99.90
35563;DHT22;21665;40.108;18.302;2022-07-29T06:05:04;33.60;99.90
35563;DHT22;21665;40.108;18.302;2022-07-29T06:07:32;33.70;99.90
35563;DHT22;21665;40.108;18.302;2022-07-29T06:09:58;34.80;99.90
35563;DHT22;21665;40.108;18.302;2022-07-29T06:12:25;34.40;99.90
35563;DHT22;21665;40.108;18.302;2022-07-29T06:14:51;34.40;99.90
35563;DHT22;21665;40.108;18.302;2022-07-29T06:17:18;33.90;99.90
35563;DHT22;21665;40.108;18.302;2022-07-29T06:19:44;33.80;99.90
35563;DHT22;21665;40.108;18.302;2022-07-29T06:22:10;33.60;99.90
35563;DHT22;21665;40.108;18.302;2022-07-29T06:24:37;33.60;99.90
35563;DHT22;21665;40.108;18.302;2022-07-29T06:27:08;34.60;99.90
35563;DHT22;21665;40.108;18.302;2022-07-29T06:29:35;34.90;99.90
35563;DHT22;21665;40.108;18.302;2022-07-29T06:32:03;34.60;99.90
35563;DHT22;21665;40.108;18.302;2022-07-29T06:34:30;34.40;99.90
35563;DHT22;21665;40.108;18.302;2022-07-29T06:36:56;33.90;99.90
35563;DHT22;21665;40.108;18.302;2022-07-29T06:39:23;34.20;99.90
35563;DHT22;21665;40.108;18.302;2022-07-29T06:41:50;34.60;99.90
35563;DHT22;21665;40.108;18.302;2022-07-29T06:44:17;34.80;99.90
35563;DHT22;21665;40.108;18.302;2022-07-29T06:46:44;35.10;99.90
35563;DHT22;21665;40.108;18.302;2022-07-29T06:49:10;35.50;99.90
35563;DHT22;21665;40.108;18.302;2022-07-29T06:51:38;35.80;99.90
35563;DHT22;21665;40.108;18.302;2022-07-29T06:54:08;35.70;99.90
35563;DHT22;21665;40.108;18.302;2022-07-29T06:56:35;35.90;99.90
35563;DHT22;21665;40.108;18.302;2022-07-29T06:59:04;36.10;99.90
35563;DHT22;21665;40.108;18.302;2022-07-29T07:01:31;35.90;99.90
35563;DHT22;21665;40.108;18.302;2022-07-29T07:04:01;36.30;99.90
35563;DHT22;21665;40.108;18.302;2022-07-29T07:06:28;36.30;99.90
35563;DHT22;21665;40.108;18.302;2022-07-29T07:08:54;36.80;99.90
35563;DHT22;21665;40.108;18.302;2022-07-29T07:11:24;36.30;99.90
35563;DHT22;21665;40.108;18.302;2022-07-29T07:13:50;36.90;99.90
35563;DHT22;21665;40.108;18.302;2022-07-29T07:16:20;36.70;99.90
35563;DHT22;21665;40.108;18.302;2022-07-29T07:18:46;36.70;99.90
35563;DHT22;21665;40.108;18.302;2022-07-29T07:21:13;36.30;99.90
35563;DHT22;21665;40.108;18.302;2022-07-29T07:23:46;36.30;99.90
35563;DHT22;21665;40.108;18.302;2022-07-29T07:26:14;36.30;99.90
35563;DHT22;21665;40.108;18.302;2022-07-29T07:28:41;36.30;99.90
35563;DHT22;21665;40.108;18.302;2022-07-29T07:31:07;36.00;99.90
35563;DHT22;21665;40.108;18.302;2022-07-29T07:33:35;35.70;99.90
35563;DHT22;21665;40.108;18.302;2022-07-29T07:36:01;35.50;99.90
35563;DHT22;21665;40.108;18.302;2022-07-29T07:38:28;35.40;99.90
35563;DHT22;21665;40.108;18.302;2022-07-29T07:40:54;35.50;99.90
35563;DHT22;21665;40.108;18.302;2022-07-29T07:43:22;35.50;99.90
35563;DHT22;21665;40.108;18.302;2022-07-29T07:45:51;35.10;99.90
35563;DHT22;21665;40.108;18.302;2022-07-29T07:48:23;35.40;99.90
35563;DHT22;21665;40.108;18.302;2022-07-29T07:50:49;35.10;99.90
35563;DHT22;21665;40.108;18.302;2022-07-29T07:53:16;34.80;99.90
35563;DHT22;21665;40.108;18.302;2022-07-29T07:55:43;34.80;99.90
35563;DHT22;21665;40.108;18.302;2022-07-29T07:58:10;35.30;99.90
35563;DHT22;21665;40.108;18.302;2022-07-29T08:00:36;35.40;99.90
35563;DHT22;21665;40.108;18.302;2022-07-29T08:03:03;35.20;99.90
35563;DHT22;21665;40.108;18.302;2022-07-29T08:05:29;35.40;99.90
35563;DHT22;21665;40.108;18.302;2022-07-29T08:07:56;35.60;99.90
35563;DHT22;21665;40.108;18.302;2022-07-29T08:10:22;35.00;99.90
35563;DHT22;21665;40.108;18.302;2022-07-29T08:13:08;35.00;99.90
35563;DHT22;21665;40.108;18.302;2022-07-29T08:15:35;35.00;99.90
35563;DHT22;21665;40.108;18.302;2022-07-29T08:18:02;34.80;99.90
35563;DHT22;21665;40.108;18.302;2022-07-29T08:20:28;35.40;99.90
35563;DHT22;21665;40.108;18.302;2022-07-29T08:22:58;35.50;99.90
35563;DHT22;21665;40.108;18.302;2022-07-29T08:25:29;35.30;99.90
35563;DHT22;21665;40.108;18.302;2022-07-29T08:27:59;35.30;99.90
35563;DHT22;21665;40.108;18.302;2022-07-29T08:30:25;35.10;99.90
35563;DHT22;21665;40.108;18.302;2022-07-29T08:32:52;35.20;99.90
35563;DHT22;21665;40.108;18.302;2022-07-29T08:35:22;35.00;99.90
35563;DHT22;21665;40.108;18.302;2022-07-29T08:37:49;34.90;99.90
35563;DHT22;21665;40.108;18.302;2022-07-29T08:40:16;35.10;99.90
35563;DHT22;21665;40.108;18.302;2022-07-29T08:42:43;35.40;99.90
35563;DHT22;21665;40.108;18.302;2022-07-29T08:45:10;35.60;99.90
35563;DHT22;21665;40.108;18.302;2022-07-29T08:47:38;35.50;99.90
35563;DHT22;21665;40.108;18.302;2022-07-29T08:50:07;35.50;99.90
35563;DHT22;21665;40.108;18.302;2022-07-29T08:52:36;35.50;99.90
35563;DHT22;21665;40.108;18.302;2022-07-29T08:55:05;35.30;99.90
35563;DHT22;21665;40.108;18.302;2022-07-29T08:57:33;35.30;99.90
35563;DHT22;21665;40.108;18.302;2022-07-29T09:00:02;35.20;99.90
35563;DHT22;21665;40.108;18.302;2022-07-29T09:02:35;35.20;99.90
35563;DHT22;21665;40.108;18.302;2022-07-29T09:05:04;35.70;99.90
35563;DHT22;21665;40.108;18.302;2022-07-29T09:07:31;36.00;99.90
35563;DHT22;21665;40.108;18.302;2022-07-29T09:09:59;35.80;99.90
35563;DHT22;21665;40.108;18.302;2022-07-29T09:12:26;36.00;99.90
35563;DHT22;21665;40.108;18.302;2022-07-29T09:14:55;36.10;99.90
35563;DHT22;21665;40.108;18.302;2022-07-29T09:17:48;35.70;99.90
35563;DHT22;21665;40.108;18.302;2022-07-29T09:20:17;36.10;99.90
35563;DHT22;21665;40.108;18.302;2022-07-29T09:22:45;35.90;99.90
35563;DHT22;21665;40.108;18.302;2022-07-29T09:25:32;35.50;99.90
35563;DHT22;21665;40.108;18.302;2022-07-29T09:30:33;35.20;99.90
35563;DHT22;21665;40.108;18.302;2022-07-29T09:33:02;35.90;99.90
35563;DHT22;21665;40.108;18.302;2022-07-29T09:35:30;36.00;99.90
35563;DHT22;21665;40.108;18.302;2022-07-29T09:37:57;35.50;99.90
35563;DHT22;21665;40.108;18.302;2022-07-29T09:40:26;35.30;99.90
35563;DHT22;21665;40.108;18.302;2022-07-29T09:42:53;35.30;99.90
35563;DHT22;21665;40.108;18.302;2022-07-29T09:45:35;35.80;99.90
35563;DHT22;21665;40.108;18.302;2022-07-29T09:48:20;35.60;99.90
35563;DHT22;21665;40.108;18.302;2022-07-29T09:50:47;35.30;99.90
35563;DHT22;21665;40.108;18.302;2022-07-29T09:53:34;34.70;99.90
35563;DHT22;21665;40.108;18.302;2022-07-29T09:56:00;34.50;99.90
35563;DHT22;21665;40.108;18.302;2022-07-29T09:58:27;34.40;99.90
35563;DHT22;21665;40.108;18.302;2022-07-29T10:00:55;34.20;99.90
35563;DHT22;21665;40.108;18.302;2022-07-29T10:03:23;33.90;99.90
35563;DHT22;21665;40.108;18.302;2022-07-29T10:06:10;34.10;99.90
35563;DHT22;21665;40.108;18.302;2022-07-29T10:08:41;34.10;99.90
35563;DHT22;21665;40.108;18.302;2022-07-29T10:11:14;34.30;99.90
35563;DHT22;21665;40.108;18.302;2022-07-29T10:13:42;34.40;99.90
35563;DHT22;21665;40.108;18.302;2022-07-29T10:16:10;34.10;99.90
35563;DHT22;21665;40.108;18.302;2022-07-29T10:18:41;33.90;99.90
35563;DHT22;21665;40.108;18.302;2022-07-29T10:21:08;34.10;99.90
35563;DHT22;21665;40.108;18.302;2022-07-29T10:23:36;34.60;99.90
35563;DHT22;21665;40.108;18.302;2022-07-29T10:26:03;34.60;99.90
35563;DHT22;21665;40.108;18.302;2022-07-29T10:28:33;34.50;99.90
35563;DHT22;21665;40.108;18.302;2022-07-29T10:31:07;34.70;99.90
35563;DHT22;21665;40.108;18.302;2022-07-29T10:34:17;34.60;99.90
35563;DHT22;21665;40.108;18.302;2022-07-29T10:42:23;34.70;99.90
35563;DHT22;21665;40.108;18.302;2022-07-29T10:44:50;34.70;99.90
35563;DHT22;21665;40.108;18.302;2022-07-29T10:47:26;34.30;99.90
35563;DHT22;21665;40.108;18.302;2022-07-29T10:49:58;34.30;99.90
35563;DHT22;21665;40.108;18.302;2022-07-29T10:52:52;34.60;99.90
35563;DHT22;21665;40.108;18.302;2022-07-29T10:55:38;34.50;99.90
35563;DHT22;21665;40.108;18.302;2022-07-29T10:58:20;34.60;99.90
35563;DHT22;21665;40.108;18.302;2022-07-29T11:00:52;34.80;99.90
35563;DHT22;21665;40.108;18.302;2022-07-29T11:03:42;34.80;99.90
35563;DHT22;21665;40.108;18.302;2022-07-29T11:06:10;34.80;99.90
35563;DHT22;21665;40.108;18.302;2022-07-29T11:08:40;34.60;99.90
35563;DHT22;21665;40.108;18.302;2022-07-29T11:13:47;34.80;99.90
35563;DHT22;21665;40.108;18.302;2022-07-29T11:16:18;35.20;99.90
35563;DHT22;21665;40.108;18.302;2022-07-29T11:21:46;35.10;99.90
35563;DHT22;21665;40.108;18.302;2022-07-29T11:24:33;35.20;99.90
35563;DHT22;21665;40.108;18.302;2022-07-29T11:27:22;35.10;99.90
35563;DHT22;21665;40.108;18.302;2022-07-29T11:29:54;34.90;99.90
35563;DHT22;21665;40.108;18.302;2022-07-29T11:32:23;34.80;99.90
35563;DHT22;21665;40.108;18.302;2022-07-29T11:37:37;35.00;99.90
35563;DHT22;21665;40.108;18.302;2022-07-29T11:42:37;35.10;99.90
35563;DHT22;21665;40.108;18.302;2022-07-29T11:45:15;35.20;99.90
35563;DHT22;21665;40.108;18.302;2022-07-29T11:47:55;35.40;99.90
35563;DHT22;21665;40.108;18.302;2022-07-29T11:50:33;35.20;99.90
35563;DHT22;21665;40.108;18.302;2022-07-29T11:53:01;35.10;99.90
35563;DHT22;21665;40.108;18.302;2022-07-29T11:55:27;35.10;99.90
35563;DHT22;21665;40.108;18.302;2022-07-29T11:57:58;34.80;99.90
35563;DHT22;21665;40.108;18.302;2022-07-29T12:00:38;35.00;99.90
35563;DHT22;21665;40.108;18.302;2022-07-29T12:03:09;35.20;99.90
35563;DHT22;21665;40.108;18.302;2022-07-29T12:05:40;35.00;99.90
35563;DHT22;21665;40.108;18.302;2022-07-29T12:10:39;34.70;99.90
35563;DHT22;21665;40.108;18.302;2022-07-29T12:13:06;34.90;99.90
35563;DHT22;21665;40.108;18.302;2022-07-29T12:15:33;34.80;99.90
35563;DHT22;21665;40.108;18.302;2022-07-29T12:18:10;35.00;99.90
35563;DHT22;21665;40.108;18.302;2022-07-29T12:20:37;35.10;99.90
35563;DHT22;21665;40.108;18.302;2022-07-29T12:23:10;35.20;99.90
35563;DHT22;21665;40.108;18.302;2022-07-29T12:25:42;35.00;99.90
35563;DHT22;21665;40.108;18.302;2022-07-29T12:28:14;34.90;99.90
35563;DHT22;21665;40.108;18.302;2022-07-29T12:30:47;34.90;99.90
35563;DHT22;21665;40.108;18.302;2022-07-29T12:33:26;34.80;99.90
35563;DHT22;21665;40.108;18.302;2022-07-29T12:35:58;35.10;99.90
35563;DHT22;21665;40.108;18.302;2022-07-29T12:38:26;35.00;99.90
35563;DHT22;21665;40.108;18.302;2022-07-29T13:53:39;34.50;99.90
35563;DHT22;21665;40.108;18.302;2022-07-29T13:56:05;34.60;99.90
35563;DHT22;21665;40.108;18.302;2022-07-29T13:58:34;34.70;99.90
35563;DHT22;21665;40.108;18.302;2022-07-29T14:01:00;34.40;99.90
35563;DHT22;21665;40.108;18.302;2022-07-29T14:03:27;34.30;99.90
35563;DHT22;21665;40.108;18.302;2022-07-29T14:05:54;34.20;99.90
35563;DHT22;21665;40.108;18.302;2022-07-29T14:08:21;34.50;99.90
35563;DHT22;21665;40.108;18.302;2022-07-29T14:10:48;34.70;99.90
35563;DHT22;21665;40.108;18.302;2022-07-29T14:13:14;34.80;99.90
35563;DHT22;21665;40.108;18.302;2022-07-29T14:15:42;34.80;99.90
35563;DHT22;21665;40.108;18.302;2022-07-29T14:18:08;34.80;99.90
35563;DHT22;21665;40.108;18.302;2022-07-29T14:20:34;34.80;99.90
35563;DHT22;21665;40.108;18.302;2022-07-29T14:23:01;34.60;99.90
35563;DHT22;21665;40.108;18.302;2022-07-29T14:25:28;34.60;99.90
35563;DHT22;21665;40.108;18.302;2022-07-29T14:27:54;34.50;99.90
35563;DHT22;21665;40.108;18.302;2022-07-29T14:30:20;34.30;99.90
35563;DHT22;21665;40.108;18.302;2022-07-29T14:32:46;34.20;99.90
35563;DHT22;21665;40.108;18.302;2022-07-29T14:35:13;34.00;99.90
35563;DHT22;21665;40.108;18.302;2022-07-29T14:37:41;34.00;99.90
35563;DHT22;21665;40.108;18.302;2022-07-29T14:40:09;33.90;99.90
35563;DHT22;21665;40.108;18.302;2022-07-29T14:42:36;34.10;99.90
35563;DHT22;21665;40.108;18.302;2022-07-29T14:45:04;34.30;99.90
35563;DHT22;21665;40.108;18.302;2022-07-29T14:47:32;34.40;99.90
35563;DHT22;21665;40.108;18.302;2022-07-29T14:49:58;34.30;99.90
35563;DHT22;21665;40.108;18.302;2022-07-29T14:52:24;34.10;99.90
35563;DHT22;21665;40.108;18.302;2022-07-29T14:54:51;34.10;99.90
35563;DHT22;21665;40.108;18.302;2022-07-29T14:57:17;33.90;99.90
35563;DHT22;21665;40.108;18.302;2022-07-29T14:59:43;33.80;99.90
35563;DHT22;21665;40.108;18.302;2022-07-29T15:02:10;33.70;99.90
35563;DHT22;21665;40.108;18.302;2022-07-29T15:04:36;33.50;99.90
35563;DHT22;21665;40.108;18.302;2022-07-29T15:07:05;33.60;99.90
35563;DHT22;21665;40.108;18.302;2022-07-29T15:09:31;33.80;99.90
35563;DHT22;21665;40.108;18.302;2022-07-29T15:11:58;33.60;99.90
35563;DHT22;21665;40.108;18.302;2022-07-29T15:14:39;33.70;99.90
35563;DHT22;21665;40.108;18.302;2022-07-29T15:17:08;33.60;99.90
35563;DHT22;21665;40.108;18.302;2022-07-29T15:19:35;33.70;99.90
35563;DHT22;21665;40.108;18.302;2022-07-29T15:22:01;33.50;99.90
35563;DHT22;21665;40.108;18.302;2022-07-29T15:24:28;33.50;99.90
35563;DHT22;21665;40.108;18.302;2022-07-29T15:26:54;33.50;99.90
35563;DHT22;21665;40.108;18.302;2022-07-29T15:29:21;33.60;99.90
35563;DHT22;21665;40.108;18.302;2022-07-29T15:31:47;33.50;99.90
35563;DHT22;21665;40.108;18.302;2022-07-29T15:34:14;33.50;99.90
35563;DHT22;21665;40.108;18.302;2022-07-29T15:36:40;33.60;99.90
35563;DHT22;21665;40.108;18.302;2022-07-29T15:39:06;33.30;99.90
35563;DHT22;21665;40.108;18.302;2022-07-29T15:41:33;33.30;99.90
35563;DHT22;21665;40.108;18.302;2022-07-29T15:44:00;33.20;99.90
35563;DHT22;21665;40.108;18.302;2022-07-29T15:46:27;33.30;99.90
35563;DHT22;21665;40.108;18.302;2022-07-29T15:49:11;32.90;99.90
35563;DHT22;21665;40.108;18.302;2022-07-29T15:51:38;33.10;99.90
35563;DHT22;21665;40.108;18.302;2022-07-29T15:54:05;33.30;99.90
35563;DHT22;21665;40.108;18.302;2022-07-29T15:56:31;33.20;99.90
35563;DHT22;21665;40.108;18.302;2022-07-29T15:58:57;33.10;99.90
35563;DHT22;21665;40.108;18.302;2022-07-29T16:01:24;33.00;99.90
35563;DHT22;21665;40.108;18.302;2022-07-29T16:03:57;32.80;99.90
35563;DHT22;21665;40.108;18.302;2022-07-29T16:06:40;32.80;99.90
35563;DHT22;21665;40.108;18.302;2022-07-29T16:09:18;32.80;99.90
35563;DHT22;21665;40.108;18.302;2022-07-29T16:11:45;32.80;99.90
35563;DHT22;21665;40.108;18.302;2022-07-29T16:14:13;32.80;99.90
35563;DHT22;21665;40.108;18.302;2022-07-29T16:16:43;32.60;99.90
35563;DHT22;21665;40.108;18.302;2022-07-29T16:19:10;32.60;99.90
35563;DHT22;21665;40.108;18.302;2022-07-29T16:21:37;32.50;99.90
35563;DHT22;21665;40.108;18.302;2022-07-29T16:24:05;32.40;99.90
35563;DHT22;21665;40.108;18.302;2022-07-29T16:26:32;32.40;99.90
35563;DHT22;21665;40.108;18.302;2022-07-29T16:28:59;32.40;99.90
35563;DHT22;21665;40.108;18.302;2022-07-29T16:31:26;32.30;99.90
35563;DHT22;21665;40.108;18.302;2022-07-29T16:33:53;32.10;99.90
35563;DHT22;21665;40.108;18.302;2022-07-29T16:36:20;31.90;99.90
35563;DHT22;21665;40.108;18.302;2022-07-29T16:38:47;31.80;99.90
35563;DHT22;21665;40.108;18.302;2022-07-29T16:41:13;31.60;99.90
35563;DHT22;21665;40.108;18.302;2022-07-29T16:43:39;31.70;99.90
35563;DHT22;21665;40.108;18.302;2022-07-29T16:46:10;31.70;99.90
35563;DHT22;21665;40.108;18.302;2022-07-29T16:48:37;31.70;99.90
35563;DHT22;21665;40.108;18.302;2022-07-29T16:51:06;31.70;99.90
35563;DHT22;21665;40.108;18.302;2022-07-29T16:53:33;31.70;99.90
35563;DHT22;21665;40.108;18.302;2022-07-29T16:56:00;31.50;99.90
35563;DHT22;21665;40.108;18.302;2022-07-29T16:58:26;31.40;99.90
35563;DHT22;21665;40.108;18.302;2022-07-29T17:00:54;31.30;99.90
35563;DHT22;21665;40.108;18.302;2022-07-29T17:03:20;31.30;99.90
35563;DHT22;21665;40.108;18.302;2022-07-29T17:05:46;31.30;99.90
35563;DHT22;21665;40.108;18.302;2022-07-29T17:08:12;31.30;99.90
35563;DHT22;21665;40.108;18.302;2022-07-29T17:10:39;31.30;99.90
35563;DHT22;21665;40.108;18.302;2022-07-29T17:13:05;31.10;99.90